Time;durP1;ratioP1;P1;durP2;ratioP2;P2;SDS_P1;SDS_P2;PMS_P1;PMS_P2;Temp;Humidity;BMP_temperature;BMP_pressure;BME280_temperature;BME280_humidity;BME280_pressure;Samples;Min_cycle;Max_cycle;Signal;HPM_P1;HPM_P2
2020/12/15 00:00:36;;;;;;;67.75;33.00;;;5.30;94.00;;;;;;5074034;28;20099;-49
2020/12/15 00:03:02;;;;;;;69.85;33.25;;;5.40;94.00;;;;;;5088906;28;20114;-49
2020/12/15 00:05:28;;;;;;;71.88;31.17;;;5.30;94.20;;;;;;5072555;28;20028;-53
2020/12/15 00:07:53;;;;;;;69.30;32.70;;;5.30;93.90;;;;;;5073713;28;20028;-50
2020/12/15 00:10:19;;;;;;;69.90;30.23;;;5.30;94.10;;;;;;5074151;28;20526;-51
2020/12/15 00:12:45;;;;;;;66.68;28.35;;;5.20;93.80;;;;;;5073891;28;20468;-49
2020/12/15 00:15:10;;;;;;;74.40;31.50;;;5.10;94.30;;;;;;5073723;28;20032;-51
2020/12/15 00:17:36;;;;;;;70.82;32.10;;;5.20;94.30;;;;;;5073910;28;20468;-52
2020/12/15 00:20:03;;;;;;;69.00;31.50;;;5.40;93.70;;;;;;5073781;28;20028;-50
2020/12/15 00:22:28;;;;;;;64.97;30.17;;;5.50;93.30;;;;;;5073776;28;20066;-51
2020/12/15 00:24:54;;;;;;;66.85;31.25;;;5.40;93.70;;;;;;5071820;28;20068;-50
2020/12/15 00:27:20;;;;;;;66.72;31.15;;;5.40;93.30;;;;;;5073930;28;20025;-50
2020/12/15 00:29:45;;;;;;;66.15;30.33;;;5.60;93.40;;;;;;5073637;28;20024;-53
2020/12/15 00:32:11;;;;;;;65.65;29.30;;;5.50;93.00;;;;;;5072822;28;20025;-48
2020/12/15 00:34:37;;;;;;;68.07;30.00;;;5.50;93.00;;;;;;5054875;28;20040;-51
2020/12/15 00:37:03;;;;;;;66.45;30.08;;;5.60;93.20;;;;;;5073689;28;20032;-50
2020/12/15 00:39:29;;;;;;;70.30;31.67;;;5.50;93.00;;;;;;5073475;28;20020;-51
2020/12/15 00:41:54;;;;;;;74.93;33.25;;;5.60;92.80;;;;;;5073355;28;20029;-52
2020/12/15 00:44:20;;;;;;;69.30;31.92;;;5.70;92.90;;;;;;5074332;28;20039;-49
2020/12/15 00:46:52;;;;;;;72.80;32.17;;;5.60;93.00;;;;;;5075178;28;20056;-50
2020/12/15 00:49:18;;;;;;;71.82;34.67;;;5.70;92.80;;;;;;5073448;28;20033;-53
2020/12/15 00:51:47;;;;;;;68.25;31.95;;;5.70;92.70;;;;;;5073474;28;20472;-51
2020/12/15 00:54:13;;;;;;;70.75;31.65;;;5.80;92.80;;;;;;5073346;28;20052;-48
2020/12/15 00:56:42;;;;;;;79.22;34.17;;;5.90;92.50;;;;;;5073427;28;20064;-49
2020/12/15 00:59:08;;;;;;;71.63;33.45;;;5.90;92.40;;;;;;5073239;28;20038;-52
2020/12/15 01:01:34;;;;;;;68.80;32.08;;;5.90;92.20;;;;;;5073283;28;20528;-49
2020/12/15 01:03:59;;;;;;;74.68;31.92;;;6.00;92.10;;;;;;5073294;28;20357;-49
2020/12/15 01:06:25;;;;;;;73.15;32.85;;;5.90;91.80;;;;;;5073293;28;20025;-49
2020/12/15 01:08:51;;;;;;;66.93;30.70;;;6.20;91.70;;;;;;5073007;28;20059;-52
2020/12/15 01:11:17;;;;;;;62.42;29.00;;;6.30;91.60;;;;;;5073033;28;20032;-50
2020/12/15 01:13:42;;;;;;;61.78;30.60;;;6.20;91.20;;;;;;5054460;28;20115;-48
2020/12/15 01:16:08;;;;;;;67.95;30.20;;;6.10;91.40;;;;;;5073123;28;20368;-51
2020/12/15 01:18:37;;;;;;;72.75;31.00;;;6.20;91.10;;;;;;5072838;28;20163;-50
2020/12/15 01:21:04;;;;;;;66.25;30.85;;;6.30;90.80;;;;;;5073168;28;20061;-52
2020/12/15 01:23:30;;;;;;;68.53;30.75;;;6.30;90.80;;;;;;5072977;28;20044;-50
2020/12/15 01:25:56;;;;;;;63.63;29.65;;;6.20;90.90;;;;;;5087303;28;20041;-48
2020/12/15 01:28:23;;;;;;;71.70;31.77;;;6.20;91.30;;;;;;5072773;28;20388;-47
2020/12/15 01:30:49;;;;;;;69.40;31.75;;;6.40;91.00;;;;;;5037629;28;20078;-52
2020/12/15 01:33:15;;;;;;;64.30;31.65;;;6.50;90.70;;;;;;5070689;28;20423;-50
2020/12/15 01:35:41;;;;;;;67.30;29.80;;;6.60;90.40;;;;;;5072957;28;20037;-48
2020/12/15 01:38:06;;;;;;;67.93;30.15;;;6.60;90.40;;;;;;5072850;28;20032;-51
2020/12/15 01:40:32;;;;;;;67.70;32.50;;;6.30;90.10;;;;;;5072659;28;20024;-50
2020/12/15 01:42:58;;;;;;;68.78;31.27;;;6.30;90.70;;;;;;5070815;28;20102;-53
2020/12/15 01:45:24;;;;;;;61.47;31.85;;;6.20;90.50;;;;;;5076002;28;20020;-51
2020/12/15 01:47:50;;;;;;;63.40;31.48;;;6.10;90.60;;;;;;5076266;28;20033;-50
2020/12/15 01:50:18;;;;;;;62.50;33.47;;;6.00;90.90;;;;;;5076337;28;20016;-51
2020/12/15 01:52:44;;;;;;;63.88;33.28;;;6.20;90.70;;;;;;5076311;28;20691;-50
2020/12/15 01:55:15;;;;;;;67.00;33.22;;;6.00;90.80;;;;;;5076296;28;20035;-53
2020/12/15 01:57:43;;;;;;;63.30;32.50;;;6.10;90.90;;;;;;5076198;28;20028;-52
2020/12/15 02:00:08;;;;;;;69.45;34.28;;;6.10;90.70;;;;;;5076291;28;20037;-51
2020/12/15 02:02:34;;;;;;;69.13;35.33;;;6.40;90.60;;;;;;5075875;28;20035;-47
2020/12/15 02:05:00;;;;;;;68.45;33.95;;;6.50;90.40;;;;;;5076304;28;20025;-50
2020/12/15 02:07:26;;;;;;;68.10;33.13;;;6.40;89.90;;;;;;5075987;28;20027;-48
2020/12/15 02:09:53;;;;;;;72.72;33.17;;;6.30;90.20;;;;;;5090895;28;20050;-51
2020/12/15 02:12:19;;;;;;;68.07;34.75;;;6.20;90.40;;;;;;5076229;28;20024;-48
2020/12/15 02:14:45;;;;;;;68.93;31.63;;;6.40;90.50;;;;;;5076149;28;20025;-48
2020/12/15 02:17:13;;;;;;;68.10;32.10;;;6.10;90.60;;;;;;5075947;28;20040;-49
2020/12/15 02:19:39;;;;;;;64.18;30.73;;;6.10;90.80;;;;;;5075856;28;20380;-48
2020/12/15 02:22:05;;;;;;;60.13;29.65;;;6.10;90.90;;;;;;5075701;28;20029;-50
2020/12/15 02:24:31;;;;;;;61.80;28.83;;;5.90;91.20;;;;;;5075674;28;20060;-47
2020/12/15 02:26:56;;;;;;;57.00;28.35;;;6.00;90.80;;;;;;5075825;28;20693;-52
2020/12/15 02:29:23;;;;;;;54.80;26.40;;;5.90;90.80;;;;;;5075576;28;20105;-49
2020/12/15 02:31:50;;;;;;;58.17;28.13;;;6.10;90.50;;;;;;5075713;28;20016;-49
2020/12/15 02:34:16;;;;;;;56.10;28.58;;;6.00;90.90;;;;;;5075476;28;20021;-49
2020/12/15 02:36:42;;;;;;;57.33;27.75;;;5.80;90.90;;;;;;5090216;28;20033;-51
2020/12/15 02:39:13;;;;;;;56.33;27.52;;;5.80;91.30;;;;;;5073285;28;20032;-52
2020/12/15 02:41:39;;;;;;;50.85;24.50;;;6.00;90.90;;;;;;5073083;28;20048;-51
2020/12/15 02:44:06;;;;;;;59.47;28.27;;;5.80;90.80;;;;;;5073162;28;20044;-53
2020/12/15 02:46:33;;;;;;;55.65;26.48;;;5.80;91.10;;;;;;5073081;28;20029;-49
2020/12/15 02:48:59;;;;;;;57.47;27.65;;;5.80;91.10;;;;;;5073011;28;20056;-51
2020/12/15 02:51:26;;;;;;;53.90;26.80;;;5.80;91.10;;;;;;5073131;28;20074;-52
2020/12/15 02:53:52;;;;;;;57.53;27.65;;;5.90;91.20;;;;;;5056355;28;20037;-48
2020/12/15 02:56:25;;;;;;;54.20;27.63;;;6.00;90.60;;;;;;5055093;28;20060;-52
2020/12/15 02:58:53;;;;;;;58.20;28.70;;;6.20;90.70;;;;;;5073046;28;20041;-50
2020/12/15 03:01:19;;;;;;;56.10;29.10;;;6.30;90.40;;;;;;5056149;28;20044;-48
2020/12/15 03:03:45;;;;;;;54.75;27.63;;;6.40;90.40;;;;;;5072441;28;20032;-49
2020/12/15 03:06:12;;;;;;;54.35;27.48;;;6.50;89.30;;;;;;5072654;28;20039;-51
2020/12/15 03:08:38;;;;;;;58.50;30.27;;;6.50;90.00;;;;;;5072408;28;20043;-49
2020/12/15 03:11:05;;;;;;;55.38;27.52;;;6.50;90.00;;;;;;5074648;28;20040;-49
2020/12/15 03:13:31;;;;;;;55.95;29.13;;;6.50;89.40;;;;;;5073311;28;20568;-49
2020/12/15 03:15:57;;;;;;;54.55;27.90;;;6.50;89.00;;;;;;5075117;28;20024;-49
2020/12/15 03:18:23;;;;;;;55.03;28.20;;;6.60;88.50;;;;;;5073209;28;20078;-47
2020/12/15 03:20:49;;;;;;;53.15;28.70;;;6.60;88.70;;;;;;5074572;28;20032;-52
2020/12/15 03:23:20;;;;;;;51.78;27.85;;;6.80;88.00;;;;;;5074400;28;20036;-52
2020/12/15 03:25:46;;;;;;;50.40;28.08;;;6.90;87.60;;;;;;5074736;28;20032;-49
2020/12/15 03:28:11;;;;;;;48.80;27.48;;;6.90;87.50;;;;;;5074566;28;20043;-51
2020/12/15 03:30:37;;;;;;;49.30;26.73;;;6.90;87.80;;;;;;5074386;28;20058;-47
2020/12/15 03:33:03;;;;;;;49.95;28.10;;;6.90;87.20;;;;;;5074362;28;20027;-51
2020/12/15 03:35:32;;;;;;;52.78;28.98;;;6.80;87.20;;;;;;5074166;28;20033;-50
2020/12/15 03:37:59;;;;;;;51.72;28.60;;;6.90;87.30;;;;;;5074290;28;20032;-49
2020/12/15 03:40:25;;;;;;;50.63;27.23;;;6.70;87.80;;;;;;5074216;28;20031;-47
2020/12/15 03:42:51;;;;;;;51.88;27.15;;;6.80;87.60;;;;;;5073940;28;20388;-49
2020/12/15 03:45:17;;;;;;;49.35;28.05;;;6.80;87.30;;;;;;5038973;28;20106;-47
2020/12/15 03:47:43;;;;;;;48.25;27.70;;;6.90;87.10;;;;;;5073781;28;20368;-53
2020/12/15 03:50:09;;;;;;;46.38;26.80;;;6.90;87.10;;;;;;5074265;28;20020;-48
2020/12/15 03:52:38;;;;;;;52.42;28.77;;;7.00;86.90;;;;;;5074059;28;20091;-52
2020/12/15 03:55:05;;;;;;;49.97;27.30;;;7.10;86.60;;;;;;5071840;28;20359;-48
2020/12/15 03:57:31;;;;;;;50.00;28.85;;;7.10;85.90;;;;;;5073843;28;20040;-51
2020/12/15 03:59:57;;;;;;;56.20;28.27;;;7.00;86.50;;;;;;5073765;28;20502;-50
2020/12/15 04:02:23;;;;;;;53.88;30.05;;;6.80;86.80;;;;;;5073682;28;20033;-48
2020/12/15 04:04:50;;;;;;;55.00;30.05;;;6.60;87.40;;;;;;5088820;28;20051;-50
2020/12/15 04:07:16;;;;;;;70.50;37.35;;;6.60;88.50;;;;;;5073400;28;20526;-50
2020/12/15 04:09:42;;;;;;;59.20;33.72;;;6.80;87.80;;;;;;5073228;28;20040;-52
2020/12/15 04:12:07;;;;;;;54.53;30.58;;;6.80;87.40;;;;;;5071911;28;20036;-51
2020/12/15 04:14:33;;;;;;;57.88;31.60;;;6.70;87.20;;;;;;5088520;28;20029;-48
2020/12/15 04:16:59;;;;;;;56.10;31.48;;;6.70;87.30;;;;;;5073547;28;20081;-52
2020/12/15 04:19:25;;;;;;;52.88;30.50;;;6.60;88.10;;;;;;5073702;28;20083;-48
2020/12/15 04:21:51;;;;;;;50.88;30.25;;;6.80;87.60;;;;;;5073775;28;20032;-49
2020/12/15 04:24:16;;;;;;;53.25;30.42;;;6.70;87.60;;;;;;5073565;28;20032;-53
2020/12/15 04:26:42;;;;;;;55.05;31.15;;;6.80;87.20;;;;;;5073412;28;20043;-49
2020/12/15 04:29:08;;;;;;;65.68;35.70;;;6.80;87.20;;;;;;5073548;28;20085;-48
2020/12/15 04:31:33;;;;;;;58.88;32.53;;;6.80;87.20;;;;;;5073791;28;20028;-50
2020/12/15 04:33:59;;;;;;;56.05;29.17;;;6.70;88.00;;;;;;5073275;28;20024;-51
2020/12/15 04:36:25;;;;;;;54.83;30.92;;;6.50;87.90;;;;;;5073540;28;20025;-52
2020/12/15 04:38:51;;;;;;;56.78;32.38;;;6.50;89.80;;;;;;5073219;28;20421;-48
2020/12/15 04:41:17;;;;;;;56.42;31.55;;;6.50;88.80;;;;;;5073794;28;20039;-52
2020/12/15 04:43:44;;;;;;;59.17;32.03;;;6.50;88.60;;;;;;5073382;28;20384;-50
2020/12/15 04:46:11;;;;;;;59.42;30.63;;;6.40;88.90;;;;;;5073445;28;20025;-53
2020/12/15 04:48:48;;;;;;;56.40;31.38;;;6.50;89.40;;;;;;5088207;28;20037;-48
2020/12/15 04:51:18;;;;;;;58.00;31.65;;;6.60;88.70;;;;;;5073476;28;20032;-49
2020/12/15 04:53:50;;;;;;;61.25;32.90;;;6.60;89.00;;;;;;5072956;28;20528;-50
2020/12/15 04:56:43;;;;;;;55.90;30.60;;;6.60;88.80;;;;;;5072253;28;20024;-51
2020/12/15 04:59:11;;;;;;;;;;;6.50;89.30;;;;;;5072696;28;20045;-50
2020/12/15 05:01:39;;;;;;;56.75;28.73;;;6.50;88.80;;;;;;5073431;28;19905;-53
2020/12/15 05:04:07;;;;;;;53.80;30.65;;;6.60;89.00;;;;;;5073145;28;20028;-50
2020/12/15 05:06:37;;;;;;;56.33;31.67;;;6.50;88.90;;;;;;5073244;28;20060;-53
2020/12/15 05:09:03;;;;;;;61.03;33.05;;;6.40;89.60;;;;;;5087667;28;20119;-51
2020/12/15 05:11:29;;;;;;;59.40;33.17;;;6.40;89.90;;;;;;5073303;28;20024;-52
2020/12/15 05:13:55;;;;;;;65.07;33.90;;;6.30;90.10;;;;;;5073052;28;20016;-51
2020/12/15 05:16:21;;;;;;;64.35;35.33;;;6.30;90.30;;;;;;5073321;28;20074;-49
2020/12/15 05:18:47;;;;;;;66.97;35.45;;;6.20;90.30;;;;;;5074315;28;20426;-50
2020/12/15 05:21:17;;;;;;;65.15;34.25;;;6.30;90.30;;;;;;5077047;28;20525;-51
2020/12/15 05:23:50;;;;;;;67.45;34.45;;;6.30;90.10;;;;;;5074981;28;20040;-53
2020/12/15 05:26:26;;;;;;;63.58;33.50;;;6.40;90.10;;;;;;5075883;28;20061;-51
2020/12/15 05:29:08;;;;;;;60.13;33.30;;;6.40;89.90;;;;;;5074563;28;20213;-51
2020/12/15 05:31:39;;;;;;;;;;;6.20;90.10;;;;;;5057841;28;20039;-52
2020/12/15 05:34:05;;;;;;;113.43;56.30;;;6.20;90.50;;;;;;5040957;28;19904;-49
2020/12/15 05:36:32;;;;;;;104.45;53.30;;;6.20;90.60;;;;;;5074141;28;20032;-50
2020/12/15 05:39:08;;;;;;;76.88;41.75;;;6.20;90.50;;;;;;5057506;28;20041;-53
2020/12/15 05:41:35;;;;;;;81.97;44.42;;;6.20;90.60;;;;;;5057533;28;20115;-51
2020/12/15 05:44:02;;;;;;;90.32;50.45;;;6.20;90.80;;;;;;5074088;28;20131;-52
2020/12/15 05:46:29;;;;;;;76.88;41.80;;;6.20;90.60;;;;;;5014349;28;20126;-51
2020/12/15 05:49:06;;;;;;;72.53;39.47;;;6.10;90.70;;;;;;5014646;28;20124;-52
2020/12/15 05:51:40;;;;;;;77.82;40.80;;;6.10;90.70;;;;;;4959116;28;20039;-48
2020/12/15 05:54:10;;;;;;;75.72;40.47;;;6.10;90.80;;;;;;4975328;28;20467;-53
2020/12/15 05:56:38;;;;;;;71.15;38.15;;;6.20;90.50;;;;;;4975378;28;20152;-48
2020/12/15 05:59:20;;;;;;;81.07;41.95;;;6.10;90.70;;;;;;4979084;28;20046;-50
2020/12/15 06:01:50;;;;;;;72.97;39.97;;;6.20;90.50;;;;;;4994939;28;20367;-50
2020/12/15 06:04:17;;;;;;;74.75;37.75;;;6.10;90.60;;;;;;4975102;28;20063;-50
2020/12/15 06:06:44;;;;;;;74.72;39.67;;;6.10;90.60;;;;;;4974956;28;20042;-47
2020/12/15 06:09:12;;;;;;;86.20;42.80;;;6.10;90.80;;;;;;4974854;28;20030;-48
2020/12/15 06:11:40;;;;;;;93.75;46.00;;;6.10;90.90;;;;;;4975220;28;20513;-51
2020/12/15 06:14:07;;;;;;;83.03;43.70;;;6.20;90.70;;;;;;4974909;28;20039;-52
2020/12/15 06:16:33;;;;;;;79.43;42.20;;;6.10;90.80;;;;;;4977509;28;20074;-53
2020/12/15 06:18:59;;;;;;;79.05;40.53;;;6.00;90.50;;;;;;4994491;28;20077;-52
2020/12/15 06:21:25;;;;;;;79.57;43.28;;;6.00;90.70;;;;;;4996402;28;20030;-49
2020/12/15 06:24:00;;;;;;;69.57;40.88;;;6.00;90.90;;;;;;5053431;28;20053;-51
2020/12/15 06:26:27;;;;;;;73.63;40.35;;;6.00;90.90;;;;;;5053355;28;20052;-51
2020/12/15 06:29:06;;;;;;;75.18;41.58;;;6.00;90.80;;;;;;5053467;28;20049;-48
2020/12/15 06:31:33;;;;;;;69.90;39.28;;;6.00;91.00;;;;;;5053420;28;20036;-50
2020/12/15 06:34:03;;;;;;;76.53;42.58;;;6.10;90.90;;;;;;5036292;28;20115;-53
2020/12/15 06:36:32;;;;;;;78.45;44.85;;;6.10;90.90;;;;;;5073072;28;20033;-50
2020/12/15 06:39:01;;;;;;;77.25;42.70;;;6.30;90.90;;;;;;5070659;28;20044;-52
2020/12/15 06:41:28;;;;;;;74.00;38.85;;;6.20;90.60;;;;;;5073333;28;20033;-51
2020/12/15 06:44:06;;;;;;;79.22;41.83;;;6.10;90.40;;;;;;5073033;28;20040;-54
2020/12/15 06:46:32;;;;;;;74.10;42.13;;;5.90;90.90;;;;;;5073218;28;20042;-56
2020/12/15 06:48:58;;;;;;;74.38;44.60;;;6.00;91.10;;;;;;5072907;28;20044;-51
2020/12/15 06:51:32;;;;;;;79.10;43.88;;;6.00;91.00;;;;;;5073134;28;20124;-52
2020/12/15 06:54:02;;;;;;;78.35;40.65;;;6.10;91.10;;;;;;5073241;28;20016;-52
2020/12/15 06:56:29;;;;;;;79.22;41.45;;;6.20;90.60;;;;;;5072691;28;20040;-51
2020/12/15 06:59:07;;;;;;;76.70;40.50;;;6.10;90.80;;;;;;5072683;28;20037;-51
2020/12/15 07:01:33;;;;;;;77.47;39.65;;;6.10;90.70;;;;;;5055655;28;20072;-55
2020/12/15 07:04:04;;;;;;;82.50;41.25;;;6.10;90.60;;;;;;5055921;28;20047;-56
2020/12/15 07:06:30;;;;;;;75.50;40.20;;;6.20;90.80;;;;;;5072228;28;20032;-51
2020/12/15 07:09:09;;;;;;;77.22;39.53;;;6.10;90.70;;;;;;5074606;28;20071;-49
2020/12/15 07:11:35;;;;;;;76.20;40.40;;;6.10;90.80;;;;;;5074569;28;20029;-49
2020/12/15 07:14:04;;;;;;;79.63;41.78;;;6.10;90.80;;;;;;5038583;28;20048;-49
2020/12/15 07:16:32;;;;;;;78.20;41.58;;;6.10;90.60;;;;;;5072455;28;20384;-49
2020/12/15 07:18:57;;;;;;;80.70;42.58;;;6.10;90.80;;;;;;5072577;28;20064;-49
2020/12/15 07:21:28;;;;;;;77.15;40.75;;;6.10;90.80;;;;;;5072019;28;20052;-49
2020/12/15 07:23:59;;;;;;;80.28;42.03;;;6.20;90.90;;;;;;5056158;28;20067;-49
2020/12/15 07:26:26;;;;;;;78.55;41.97;;;6.20;90.70;;;;;;5072116;28;20039;-49
2020/12/15 07:28:52;;;;;;;80.15;41.60;;;6.40;90.50;;;;;;5071908;28;20040;-49
2020/12/15 07:31:29;;;;;;;76.18;42.28;;;6.30;90.10;;;;;;5072032;28;20457;-49
2020/12/15 07:34:18;;;;;;;88.53;50.67;;;6.30;90.30;;;;;;5055149;28;20051;-49
2020/12/15 07:36:49;;;;;;;96.50;54.90;;;6.30;90.30;;;;;;5054500;28;20037;-49
2020/12/15 07:39:16;;;;;;;85.30;48.88;;;6.50;90.10;;;;;;5071787;28;20119;-49
2020/12/15 07:41:42;;;;;;;82.57;46.67;;;6.30;90.30;;;;;;5071532;28;20024;-49
2020/12/15 07:44:12;;;;;;;98.22;53.85;;;6.30;90.30;;;;;;5036046;28;20118;-49
2020/12/15 07:46:44;;;;;;;86.57;49.28;;;6.40;90.10;;;;;;5088784;28;20075;-49
2020/12/15 07:49:10;;;;;;;76.00;43.55;;;6.50;89.80;;;;;;5074122;28;20052;-49
2020/12/15 07:51:40;;;;;;;66.95;38.33;;;6.50;90.00;;;;;;5088590;28;20075;-49
2020/12/15 07:54:06;;;;;;;68.28;38.13;;;6.60;88.70;;;;;;5074077;28;20024;-49
2020/12/15 07:56:32;;;;;;;73.55;40.50;;;6.70;88.70;;;;;;5074320;28;20020;-49
2020/12/15 07:58:59;;;;;;;63.35;37.88;;;6.80;88.40;;;;;;5073771;28;20051;-49
2020/12/15 08:01:27;;;;;;;60.35;34.35;;;6.60;89.00;;;;;;5073782;28;20099;-49
2020/12/15 08:04:20;;;;;;;56.33;32.67;;;6.60;88.00;;;;;;5073905;28;20411;-49
2020/12/15 08:06:47;;;;;;;51.22;27.50;;;6.50;88.50;;;;;;5073408;28;20115;-49
2020/12/15 08:09:17;;;;;;;53.28;31.13;;;6.50;88.80;;;;;;5073825;28;20492;-49
2020/12/15 08:11:46;;;;;;;52.90;30.25;;;6.50;87.80;;;;;;5073671;28;20036;-50
2020/12/15 08:14:14;;;;;;;51.10;32.45;;;6.50;88.20;;;;;;5072986;28;20145;-49
2020/12/15 08:16:41;;;;;;;49.70;28.75;;;6.60;88.70;;;;;;5073471;28;20445;-49
2020/12/15 08:19:07;;;;;;;55.45;32.92;;;6.60;87.60;;;;;;5073563;28;20111;-49
2020/12/15 08:21:41;;;;;;;47.60;28.13;;;6.70;88.10;;;;;;5073172;28;20031;-49
2020/12/15 08:24:11;;;;;;;49.50;28.00;;;6.80;87.60;;;;;;5073477;28;20356;-49
2020/12/15 08:26:39;;;;;;;57.35;31.92;;;6.70;87.20;;;;;;5073437;28;20490;-49
2020/12/15 08:29:10;;;;;;;55.28;29.73;;;6.80;87.30;;;;;;5087730;28;20033;-49
2020/12/15 08:31:40;;;;;;;47.13;27.97;;;6.80;86.40;;;;;;5073321;28;20111;-48
2020/12/15 08:34:19;;;;;;;42.38;27.17;;;6.80;86.50;;;;;;5073315;28;20414;-48
2020/12/15 08:36:50;;;;;;;44.72;27.08;;;6.90;86.60;;;;;;5073004;28;20036;-48
2020/12/15 08:39:40;;;;;;;50.15;29.63;;;6.80;85.70;;;;;;5073685;28;20081;-48
2020/12/15 08:42:09;;;;;;;42.65;26.58;;;7.00;85.80;;;;;;5073157;28;20024;-49
2020/12/15 08:44:35;;;;;;;41.35;24.33;;;6.90;85.90;;;;;;5073019;28;20035;-49
2020/12/15 08:47:01;;;;;;;41.85;25.20;;;7.00;85.30;;;;;;5073148;28;20036;-49
2020/12/15 08:49:27;;;;;;;42.83;25.27;;;7.10;84.80;;;;;;5073561;28;20029;-50
2020/12/15 08:51:54;;;;;;;41.42;24.88;;;7.10;84.70;;;;;;5087834;28;20036;-48
2020/12/15 08:54:21;;;;;;;41.40;25.95;;;7.30;84.80;;;;;;5075256;28;20032;-48
2020/12/15 08:56:48;;;;;;;43.05;27.58;;;7.20;84.40;;;;;;5090354;28;20030;-48
2020/12/15 08:59:21;;;;;;;39.22;25.13;;;7.50;84.70;;;;;;5095487;28;20077;-48
2020/12/15 09:01:47;;;;;;;37.15;24.23;;;7.30;83.50;;;;;;5096791;28;20016;-48
2020/12/15 09:04:25;;;;;;;37.97;25.25;;;7.40;83.30;;;;;;5096903;28;20386;-48
2020/12/15 09:06:50;;;;;;;41.35;27.77;;;7.50;82.30;;;;;;5094051;28;20027;-48
2020/12/15 09:09:23;;;;;;;33.38;23.15;;;7.50;83.30;;;;;;5094164;28;20044;-49
2020/12/15 09:11:54;;;;;;;67.55;49.28;;;7.60;82.60;;;;;;5092163;28;20432;-49
2020/12/15 09:14:21;;;;;;;45.10;30.98;;;7.50;81.70;;;;;;5078696;28;20561;-48
2020/12/15 09:16:47;;;;;;;31.95;20.95;;;7.60;81.60;;;;;;5088376;28;20035;-49
2020/12/15 09:19:18;;;;;;;28.42;18.85;;;7.40;81.40;;;;;;5094263;28;20073;-48
2020/12/15 09:21:56;;;;;;;27.90;18.67;;;7.40;81.00;;;;;;5096486;28;20515;-48
2020/12/15 09:24:22;;;;;;;28.10;19.30;;;7.40;81.60;;;;;;5095140;28;20132;-49
2020/12/15 09:26:48;;;;;;;29.40;20.45;;;7.50;81.40;;;;;;5096423;28;20056;-49
2020/12/15 09:29:13;;;;;;;29.98;20.30;;;7.60;80.80;;;;;;5114955;28;20478;-49
2020/12/15 09:31:39;;;;;;;26.60;18.88;;;7.60;80.00;;;;;;5115196;28;20115;-48
2020/12/15 09:34:06;;;;;;;26.25;19.67;;;7.50;80.10;;;;;;5114706;28;20062;-49
2020/12/15 09:36:32;;;;;;;27.35;18.20;;;7.60;80.10;;;;;;5115025;28;20115;-49
2020/12/15 09:38:58;;;;;;;23.40;15.82;;;7.40;81.00;;;;;;5115098;28;20040;-49
2020/12/15 09:41:24;;;;;;;20.23;12.05;;;7.30;80.40;;;;;;5111985;28;20092;-48
2020/12/15 09:43:50;;;;;;;27.50;19.20;;;7.20;81.30;;;;;;5114746;28;20552;-49
2020/12/15 09:46:16;;;;;;;21.48;14.27;;;7.40;81.80;;;;;;5114781;28;20028;-49
2020/12/15 09:48:42;;;;;;;26.02;18.35;;;7.40;80.90;;;;;;5103769;27;20035;-50
2020/12/15 09:51:11;;;;;;;26.85;18.30;;;7.40;81.60;;;;;;5135359;27;20031;-48
2020/12/15 09:53:37;;;;;;;29.38;22.08;;;7.40;80.70;;;;;;5135367;27;20430;-48
2020/12/15 09:56:03;;;;;;;27.75;18.85;;;7.20;81.20;;;;;;5134260;27;20054;-50
2020/12/15 09:58:29;;;;;;;25.52;17.10;;;7.20;81.60;;;;;;5108170;28;20103;-49
2020/12/15 10:00:55;;;;;;;28.55;19.98;;;7.30;81.10;;;;;;5114853;28;20527;-49
2020/12/15 10:03:21;;;;;;;27.55;19.98;;;7.50;80.50;;;;;;5122047;27;20372;-49
2020/12/15 10:05:48;;;;;;;29.23;19.30;;;7.50;81.10;;;;;;5091186;28;20063;-45
2020/12/15 10:08:14;;;;;;;28.27;19.63;;;7.60;80.70;;;;;;5110790;28;20040;-52
2020/12/15 10:10:40;;;;;;;26.40;17.08;;;7.60;80.60;;;;;;5094886;28;20044;-51
2020/12/15 10:13:07;;;;;;;36.30;23.83;;;7.50;80.20;;;;;;5111102;28;20028;-51
2020/12/15 10:15:33;;;;;;;40.45;28.48;;;7.40;80.90;;;;;;5096335;28;20027;-52
2020/12/15 10:17:59;;;;;;;35.03;24.73;;;7.70;81.40;;;;;;5096056;28;20055;-52
2020/12/15 10:20:26;;;;;;;32.75;23.30;;;7.70;80.00;;;;;;5090424;28;20048;-59
2020/12/15 10:22:53;;;;;;;28.98;20.77;;;7.90;80.40;;;;;;5093154;28;20040;-48
2020/12/15 10:25:22;;;;;;;27.58;20.50;;;7.80;79.90;;;;;;5095644;28;20028;-50
2020/12/15 10:27:47;;;;;;;29.13;19.88;;;7.90;80.50;;;;;;5096115;28;20104;-50
2020/12/15 10:30:13;;;;;;;30.73;19.92;;;7.70;80.70;;;;;;5095517;28;20111;-52
2020/12/15 10:32:39;;;;;;;28.20;19.48;;;7.80;80.60;;;;;;5096254;28;20353;-53
2020/12/15 10:35:05;;;;;;;30.73;21.20;;;7.80;81.40;;;;;;5087490;28;20036;-46
2020/12/15 10:37:30;;;;;;;28.38;19.00;;;8.00;80.40;;;;;;5092587;28;20016;-45
2020/12/15 10:39:56;;;;;;;30.77;20.20;;;7.90;79.40;;;;;;5095521;28;20036;-45
2020/12/15 10:42:22;;;;;;;30.42;20.80;;;8.00;79.40;;;;;;5095224;28;20028;-48
2020/12/15 10:44:48;;;;;;;24.60;16.52;;;8.00;79.70;;;;;;5095622;28;20028;-46
2020/12/15 10:47:14;;;;;;;32.33;21.08;;;7.80;80.30;;;;;;5095512;28;20050;-46
2020/12/15 10:49:40;;;;;;;29.33;21.25;;;7.80;81.30;;;;;;5110379;28;20040;-45
2020/12/15 10:52:07;;;;;;;30.27;21.73;;;7.80;81.70;;;;;;5095383;28;20099;-47
2020/12/15 10:54:33;;;;;;;34.67;23.52;;;7.90;80.90;;;;;;5095319;28;20111;-47
2020/12/15 10:56:59;;;;;;;28.85;20.52;;;7.90;80.10;;;;;;5095009;28;20028;-46
2020/12/15 10:59:25;;;;;;;28.85;19.25;;;7.90;79.90;;;;;;5095427;28;20031;-45
2020/12/15 11:01:54;;;;;;;32.97;22.00;;;7.70;80.40;;;;;;5095362;28;20059;-45
2020/12/15 11:04:20;;;;;;;28.23;18.05;;;7.60;80.80;;;;;;5094178;28;20048;-45
2020/12/15 11:06:46;;;;;;;31.20;20.25;;;7.40;81.30;;;;;;5095135;28;20032;-46
2020/12/15 11:09:15;;;;;;;33.05;22.23;;;7.40;81.70;;;;;;5094931;28;20127;-46
2020/12/15 11:11:48;;;;;;;30.17;22.20;;;7.40;82.50;;;;;;5094932;28;20110;-45
2020/12/15 11:14:15;;;;;;;30.40;20.73;;;7.40;82.80;;;;;;5109904;28;20028;-47
2020/12/15 11:16:41;;;;;;;31.98;21.95;;;7.50;83.00;;;;;;5094183;28;20149;-46
2020/12/15 11:19:06;;;;;;;43.65;27.88;;;7.40;82.20;;;;;;5094767;28;20036;-46
2020/12/15 11:21:32;;;;;;;34.25;22.48;;;7.60;81.70;;;;;;5095141;28;20524;-46
2020/12/15 11:23:58;;;;;;;41.65;24.60;;;7.50;80.70;;;;;;5094808;28;20032;-47
2020/12/15 11:26:24;;;;;;;41.38;27.08;;;7.50;81.90;;;;;;5094705;28;20046;-47
2020/12/15 11:28:49;;;;;;;39.05;25.73;;;7.60;81.20;;;;;;5092810;28;20462;-47
2020/12/15 11:31:15;;;;;;;33.97;23.55;;;7.50;82.00;;;;;;5092462;28;20105;-47
2020/12/15 11:33:42;;;;;;;36.72;24.33;;;7.60;81.80;;;;;;5094540;28;20112;-45
2020/12/15 11:36:08;;;;;;;37.63;24.08;;;7.50;81.70;;;;;;5093228;28;20085;-45
2020/12/15 11:38:36;;;;;;;39.80;26.80;;;7.50;82.10;;;;;;5112537;28;20509;-45
2020/12/15 11:41:02;;;;;;;32.65;21.67;;;7.70;82.70;;;;;;5112347;28;20063;-46
2020/12/15 11:43:27;;;;;;;38.38;25.13;;;7.50;81.90;;;;;;5110006;28;20154;-47
2020/12/15 11:45:53;;;;;;;37.17;25.95;;;7.50;82.80;;;;;;5092221;28;20032;-47
2020/12/15 11:48:19;;;;;;;39.30;26.52;;;7.50;82.70;;;;;;5091886;28;20089;-47
2020/12/15 11:50:45;;;;;;;34.13;22.90;;;7.60;82.50;;;;;;5092152;28;20038;-46
2020/12/15 11:53:11;;;;;;;38.10;25.67;;;7.50;81.40;;;;;;5091822;28;20066;-47
2020/12/15 11:55:37;;;;;;;33.97;23.75;;;7.60;82.20;;;;;;5074639;28;20068;-46
2020/12/15 11:58:02;;;;;;;36.97;24.77;;;7.50;81.90;;;;;;5092116;28;20539;-45
2020/12/15 12:00:28;;;;;;;32.40;21.27;;;7.60;82.50;;;;;;5041445;28;20121;-45
2020/12/15 12:02:54;;;;;;;33.00;22.05;;;7.70;80.40;;;;;;5074743;28;20040;-46
2020/12/15 12:05:20;;;;;;;35.72;23.23;;;7.60;81.00;;;;;;5091848;28;20040;-47
2020/12/15 12:07:46;;;;;;;34.67;23.35;;;7.60;81.40;;;;;;5074693;28;20495;-47
2020/12/15 12:10:13;;;;;;;37.67;24.58;;;7.50;81.20;;;;;;5097070;28;20055;-45
2020/12/15 12:12:39;;;;;;;32.13;22.02;;;7.50;82.00;;;;;;5092008;28;20088;-47
2020/12/15 12:15:05;;;;;;;33.92;23.17;;;7.40;81.80;;;;;;5093851;28;20519;-47
2020/12/15 12:17:31;;;;;;;35.10;23.17;;;7.40;81.00;;;;;;5093777;28;20115;-47
2020/12/15 12:19:57;;;;;;;32.30;23.63;;;7.40;81.70;;;;;;5093882;28;20048;-46
2020/12/15 12:22:23;;;;;;;30.75;22.45;;;7.40;81.40;;;;;;5093744;28;20024;-46
2020/12/15 12:24:49;;;;;;;31.67;19.98;;;7.40;81.60;;;;;;5093903;28;20055;-45
2020/12/15 12:27:15;;;;;;;30.90;21.75;;;7.40;80.60;;;;;;5057968;28;20028;-45
2020/12/15 12:29:41;;;;;;;30.73;20.98;;;7.30;81.40;;;;;;5093870;28;20367;-45
2020/12/15 12:32:07;;;;;;;29.73;20.58;;;7.40;81.50;;;;;;5093748;28;20069;-48
2020/12/15 12:34:33;;;;;;;32.28;22.08;;;7.40;81.50;;;;;;5093537;28;20032;-47
2020/12/15 12:36:59;;;;;;;30.60;21.90;;;7.30;81.70;;;;;;5093639;28;20031;-47
2020/12/15 12:39:25;;;;;;;36.53;24.80;;;7.50;81.10;;;;;;5093601;28;20070;-47